Time;durP1;ratioP1;P1;durP2;ratioP2;P2;SDS_P1;SDS_P2;PMS_P1;PMS_P2;Temp;Humidity;BMP_temperature;BMP_pressure;BME280_temperature;BME280_humidity;BME280_pressure;Samples;Min_cycle;Max_cycle;Signal;HPM_P1;HPM_P2
2021/07/28 00:00:33;;;;;;;11.32;2.63;;;17.80;99.90;;;;;;4991214;28;20029;-82
2021/07/28 00:02:59;;;;;;;7.68;2.60;;;17.80;99.90;;;;;;4990865;28;20097;-82
2021/07/28 00:05:25;;;;;;;9.95;2.67;;;17.80;99.90;;;;;;4991834;28;20025;-82
2021/07/28 00:07:51;;;;;;;10.85;2.50;;;17.80;99.90;;;;;;4990879;28;20034;-82
2021/07/28 00:10:18;;;;;;;13.15;2.60;;;17.80;99.90;;;;;;4991088;28;20034;-82
2021/07/28 00:12:43;;;;;;;12.05;2.80;;;17.80;99.90;;;;;;4994588;28;20023;-82
2021/07/28 00:15:12;;;;;;;11.43;2.55;;;17.80;99.90;;;;;;4994460;28;20405;-82
2021/07/28 00:17:45;;;;;;;10.27;2.53;;;17.80;99.90;;;;;;4994741;28;20033;-82
2021/07/28 00:23:16;;;;;;;9.50;2.75;;;17.70;99.90;;;;;;4983514;28;20478;-82
2021/07/28 00:25:43;;;;;;;9.68;3.10;;;17.60;99.90;;;;;;4994967;28;20512;-82
2021/07/28 00:28:09;;;;;;;11.95;2.72;;;17.60;99.90;;;;;;4993405;28;20433;-82
2021/07/28 00:30:35;;;;;;;10.00;3.00;;;17.50;99.90;;;;;;4995098;28;20072;-82
2021/07/28 00:33:01;;;;;;;13.00;2.63;;;17.50;99.90;;;;;;4993089;28;20074;-82
2021/07/28 00:35:27;;;;;;;8.13;2.83;;;17.50;99.90;;;;;;4994343;28;20105;-83
2021/07/28 00:37:55;;;;;;;14.18;3.08;;;17.60;99.90;;;;;;4992626;28;20548;-83
2021/07/28 00:40:20;;;;;;;13.60;3.08;;;17.60;99.90;;;;;;4990119;28;20035;-82
2021/07/28 00:42:46;;;;;;;11.57;3.10;;;17.60;99.90;;;;;;4991092;28;20041;-82
2021/07/28 00:45:12;;;;;;;11.57;2.92;;;17.60;99.90;;;;;;4992938;28;20046;-83
2021/07/28 00:47:38;;;;;;;8.10;2.85;;;17.60;99.90;;;;;;4994568;28;20121;-82
2021/07/28 00:50:04;;;;;;;7.50;2.80;;;17.60;99.90;;;;;;4994586;28;20019;-85
2021/07/28 00:52:37;;;;;;;7.82;3.15;;;17.70;99.90;;;;;;4994701;28;20054;-83
2021/07/28 00:55:04;;;;;;;11.68;2.95;;;17.70;99.90;;;;;;4994692;28;20025;-82
2021/07/28 00:57:30;;;;;;;11.65;2.78;;;17.70;99.90;;;;;;4994405;28;20083;-82
2021/07/28 00:59:57;;;;;;;8.07;2.63;;;17.80;99.90;;;;;;4993205;28;20032;-82
2021/07/28 01:02:22;;;;;;;17.10;3.17;;;17.80;99.90;;;;;;4994083;28;20041;-84
2021/07/28 01:04:48;;;;;;;11.18;3.05;;;17.90;99.90;;;;;;4994474;28;20026;-83
2021/07/28 01:07:13;;;;;;;9.27;2.90;;;17.80;99.90;;;;;;4993761;28;20038;-82
2021/07/28 01:09:39;;;;;;;13.20;2.72;;;17.80;99.90;;;;;;4993762;28;20093;-82
2021/07/28 01:12:05;;;;;;;7.90;2.83;;;17.80;99.90;;;;;;4993727;28;20022;-82
2021/07/28 01:14:31;;;;;;;11.75;2.80;;;17.80;99.90;;;;;;4992411;28;20029;-83
2021/07/28 01:16:57;;;;;;;9.25;2.95;;;17.80;99.90;;;;;;4994168;28;20026;-82
2021/07/28 01:19:29;;;;;;;13.38;2.65;;;17.80;99.90;;;;;;4993926;28;20022;-82
2021/07/28 01:21:58;;;;;;;9.20;2.53;;;17.70;99.90;;;;;;4994098;28;20081;-82
2021/07/28 01:24:24;;;;;;;6.13;2.10;;;17.70;99.90;;;;;;4993548;28;20030;-82
2021/07/28 01:26:51;;;;;;;12.20;2.95;;;17.70;99.90;;;;;;4993847;28;20034;-83
2021/07/28 01:29:18;;;;;;;11.82;2.88;;;17.80;99.90;;;;;;4992811;28;20026;-84
2021/07/28 01:31:44;;;;;;;10.90;3.28;;;17.80;99.90;;;;;;4992981;28;20402;-82
2021/07/28 01:34:11;;;;;;;8.98;2.88;;;17.90;99.90;;;;;;4992054;28;20042;-82
2021/07/28 01:36:38;;;;;;;14.63;2.60;;;17.80;99.90;;;;;;4993898;28;20129;-82
2021/07/28 01:39:04;;;;;;;11.70;3.00;;;17.80;99.90;;;;;;4990651;28;20073;-82
2021/07/28 01:41:31;;;;;;;14.68;3.33;;;17.80;99.90;;;;;;4991861;28;20062;-82
2021/07/28 01:43:57;;;;;;;7.43;2.60;;;17.80;99.90;;;;;;4993545;28;20054;-83
2021/07/28 01:46:23;;;;;;;7.93;2.60;;;17.80;99.90;;;;;;4992402;28;20065;-83
2021/07/28 01:48:48;;;;;;;14.38;3.45;;;17.90;99.90;;;;;;4993394;28;20516;-82
2021/07/28 01:51:14;;;;;;;9.52;2.20;;;17.90;99.90;;;;;;4992346;28;20069;-82
2021/07/28 01:53:43;;;;;;;11.55;2.42;;;18.00;99.90;;;;;;4993290;28;20023;-82
2021/07/28 01:56:09;;;;;;;7.85;2.50;;;18.00;99.90;;;;;;4991687;28;20065;-81
2021/07/28 01:58:38;;;;;;;6.40;2.10;;;18.10;99.90;;;;;;4993551;28;20054;-82
2021/07/28 02:01:03;;;;;;;5.78;2.15;;;18.10;99.90;;;;;;4993409;28;20494;-82
2021/07/28 02:03:29;;;;;;;6.13;2.22;;;18.10;99.90;;;;;;4993247;28;20033;-82
2021/07/28 02:05:55;;;;;;;12.27;2.45;;;18.10;99.90;;;;;;4993520;28;20044;-82
2021/07/28 02:08:21;;;;;;;8.35;2.30;;;18.10;99.90;;;;;;4993278;28;20336;-82
2021/07/28 02:10:48;;;;;;;7.60;2.00;;;18.10;99.90;;;;;;4992937;28;20436;-82
2021/07/28 02:13:19;;;;;;;7.90;2.17;;;18.10;99.90;;;;;;4991767;28;20022;-82
2021/07/28 02:15:45;;;;;;;10.43;2.53;;;18.20;99.90;;;;;;4992472;28;20113;-82
2021/07/28 02:18:11;;;;;;;5.93;2.47;;;18.10;99.90;;;;;;4991948;28;20058;-82
2021/07/28 02:20:37;;;;;;;9.60;3.05;;;18.10;99.90;;;;;;4992417;28;20498;-82
2021/07/28 02:23:03;;;;;;;10.40;2.80;;;18.10;99.90;;;;;;4992793;28;20052;-82
2021/07/28 02:25:29;;;;;;;10.55;2.40;;;18.20;99.90;;;;;;4991200;28;20445;-82
2021/07/28 02:27:55;;;;;;;12.50;2.35;;;18.20;99.90;;;;;;4992326;28;20018;-82
2021/07/28 02:30:21;;;;;;;5.20;2.10;;;18.10;99.90;;;;;;4991028;28;20034;-82
2021/07/28 02:32:47;;;;;;;10.48;2.50;;;18.10;99.90;;;;;;4992231;28;20022;-82
2021/07/28 02:35:14;;;;;;;11.90;2.80;;;18.10;99.90;;;;;;4989659;28;20109;-82
2021/07/28 02:37:41;;;;;;;12.25;2.60;;;18.20;99.90;;;;;;4992506;28;20513;-82
2021/07/28 02:40:11;;;;;;;20.55;2.92;;;18.20;99.90;;;;;;4971610;28;20180;-82
2021/07/28 02:42:37;;;;;;;12.05;2.78;;;18.20;99.90;;;;;;4971596;28;20031;-82
2021/07/28 02:45:04;;;;;;;13.15;3.00;;;18.20;99.90;;;;;;4971322;28;20054;-82
2021/07/28 02:47:30;;;;;;;8.35;2.60;;;18.20;99.90;;;;;;4972507;28;20035;-82
2021/07/28 02:49:55;;;;;;;6.57;2.40;;;18.20;99.90;;;;;;4973024;28;20038;-82
2021/07/28 02:52:21;;;;;;;9.15;2.50;;;18.20;99.90;;;;;;4972841;28;20034;-82
2021/07/28 02:54:47;;;;;;;13.80;2.58;;;18.20;99.90;;;;;;4972628;28;20029;-82
2021/07/28 02:57:13;;;;;;;11.82;2.63;;;18.20;99.90;;;;;;4972899;28;20026;-82
2021/07/28 02:59:38;;;;;;;10.93;2.80;;;18.20;99.90;;;;;;4972649;28;20062;-82
2021/07/28 03:02:04;;;;;;;14.90;2.80;;;18.20;99.90;;;;;;4972863;28;20039;-82
2021/07/28 03:04:30;;;;;;;10.07;2.53;;;18.20;99.90;;;;;;4972513;28;20038;-82
2021/07/28 03:06:56;;;;;;;9.63;2.70;;;18.10;99.90;;;;;;4972935;28;20031;-82
2021/07/28 03:09:22;;;;;;;11.95;2.72;;;18.10;99.90;;;;;;4972417;28;20424;-82
2021/07/28 03:11:47;;;;;;;14.65;3.22;;;18.10;99.90;;;;;;4972685;28;20494;-82
2021/07/28 03:14:13;;;;;;;9.93;2.65;;;18.10;99.90;;;;;;4972022;28;20482;-82
2021/07/28 03:16:40;;;;;;;13.98;3.20;;;18.10;99.90;;;;;;4972423;28;20451;-82
2021/07/28 03:19:05;;;;;;;9.20;2.60;;;18.10;99.90;;;;;;4970617;28;20029;-82
2021/07/28 03:21:32;;;;;;;11.98;2.72;;;18.00;99.90;;;;;;4972339;28;20027;-82
2021/07/28 03:23:58;;;;;;;13.85;3.13;;;18.00;99.90;;;;;;4972227;28;20035;-82
2021/07/28 03:26:24;;;;;;;13.43;2.50;;;18.00;99.90;;;;;;4972543;28;20029;-84
2021/07/28 03:28:50;;;;;;;8.65;2.70;;;18.00;99.90;;;;;;4972268;28;20035;-82
2021/07/28 03:31:15;;;;;;;13.00;2.80;;;18.00;99.90;;;;;;4972075;28;20130;-82
2021/07/28 03:33:41;;;;;;;12.50;3.03;;;18.00;99.90;;;;;;4972984;28;20037;-82
2021/07/28 03:36:07;;;;;;;10.68;3.33;;;18.00;99.90;;;;;;4989423;28;20038;-82
2021/07/28 03:38:32;;;;;;;11.68;2.60;;;17.90;99.90;;;;;;4999719;28;20145;-83
2021/07/28 03:40:58;;;;;;;17.90;2.72;;;17.90;99.90;;;;;;4972254;28;20035;-82
2021/07/28 03:43:24;;;;;;;10.02;2.88;;;17.80;99.90;;;;;;4993136;28;20050;-82
2021/07/28 03:45:50;;;;;;;15.77;3.10;;;17.70;99.90;;;;;;4989809;28;20035;-82
2021/07/28 03:48:15;;;;;;;15.23;3.03;;;17.70;99.90;;;;;;4991534;28;20030;-82
2021/07/28 03:50:41;;;;;;;13.88;3.40;;;17.60;99.90;;;;;;4991392;28;20041;-82
2021/07/28 03:53:07;;;;;;;8.20;3.00;;;17.70;99.90;;;;;;4991691;28;20030;-82
2021/07/28 03:55:32;;;;;;;9.63;2.78;;;17.60;99.90;;;;;;4991529;28;20018;-82
2021/07/28 03:57:58;;;;;;;8.65;2.92;;;17.60;99.90;;;;;;4991272;28;20449;-82
2021/07/28 04:00:24;;;;;;;9.68;2.60;;;17.50;99.90;;;;;;4991472;28;20035;-82
2021/07/28 04:02:50;;;;;;;11.40;2.90;;;17.50;99.90;;;;;;4989934;28;20034;-82
2021/07/28 04:05:15;;;;;;;13.35;2.90;;;17.50;99.90;;;;;;4990059;28;20030;-82
2021/07/28 04:07:42;;;;;;;13.48;2.83;;;17.50;99.90;;;;;;4991214;28;20043;-82
2021/07/28 04:10:09;;;;;;;9.55;2.70;;;17.50;99.90;;;;;;4989787;28;20033;-82
2021/07/28 04:12:34;;;;;;;15.65;4.03;;;17.50;99.90;;;;;;4991039;28;20030;-82
2021/07/28 04:15:00;;;;;;;11.35;3.17;;;17.40;99.90;;;;;;4990292;28;20153;-82
2021/07/28 04:17:26;;;;;;;9.68;2.63;;;17.40;99.90;;;;;;4990311;28;20057;-84
2021/07/28 04:19:52;;;;;;;13.43;3.17;;;17.40;99.90;;;;;;4990886;28;20109;-82
2021/07/28 04:22:21;;;;;;;15.52;2.90;;;17.40;99.90;;;;;;4990931;28;20034;-82
2021/07/28 04:24:47;;;;;;;7.40;2.63;;;17.30;99.90;;;;;;4989638;28;20037;-82
2021/07/28 04:27:13;;;;;;;17.48;3.40;;;17.30;99.90;;;;;;4990863;28;20070;-82
2021/07/28 04:29:39;;;;;;;11.18;3.05;;;17.30;99.90;;;;;;4989863;28;20029;-82
2021/07/28 04:32:06;;;;;;;9.60;2.90;;;17.30;99.90;;;;;;4990932;28;20026;-82
2021/07/28 04:34:34;;;;;;;12.73;2.70;;;17.20;99.90;;;;;;4989617;28;20034;-82
2021/07/28 04:37:00;;;;;;;10.63;3.17;;;17.20;99.90;;;;;;4990211;28;20029;-82
2021/07/28 04:39:25;;;;;;;12.43;2.80;;;17.10;99.90;;;;;;4985500;28;20046;-82
2021/07/28 04:41:51;;;;;;;17.45;3.20;;;17.10;99.90;;;;;;4971781;28;20038;-82
2021/07/28 04:44:17;;;;;;;15.20;3.35;;;17.10;99.90;;;;;;4977480;28;20054;-84
2021/07/28 04:46:42;;;;;;;9.10;3.00;;;17.10;99.90;;;;;;4987508;28;20033;-82
2021/07/28 04:49:08;;;;;;;15.05;3.50;;;17.10;99.90;;;;;;4990312;28;20027;-82
2021/07/28 04:51:34;;;;;;;6.93;3.08;;;17.00;99.90;;;;;;4990729;28;20026;-82
2021/07/28 04:54:00;;;;;;;13.55;3.55;;;17.10;99.90;;;;;;4990413;28;20058;-82
2021/07/28 04:56:25;;;;;;;11.20;3.08;;;17.00;99.90;;;;;;4990719;28;20045;-82
2021/07/28 04:58:51;;;;;;;16.75;3.60;;;17.00;99.90;;;;;;4990740;28;20535;-82
2021/07/28 05:01:17;;;;;;;13.50;3.20;;;17.00;99.90;;;;;;4992932;28;20588;-82
2021/07/28 05:03:42;;;;;;;20.13;3.72;;;17.00;99.90;;;;;;4993913;28;20505;-82
2021/07/28 05:06:08;;;;;;;16.58;3.47;;;17.00;99.90;;;;;;4978867;28;20406;-82
2021/07/28 05:08:34;;;;;;;22.95;3.45;;;17.00;99.90;;;;;;4973569;28;20050;-82
2021/07/28 05:10:59;;;;;;;19.77;4.50;;;17.00;99.90;;;;;;4974862;28;20544;-81
2021/07/28 05:13:25;;;;;;;20.73;4.10;;;17.00;99.90;;;;;;4974424;28;20496;-82
2021/07/28 05:15:53;;;;;;;21.40;6.25;;;17.00;99.90;;;;;;4973043;28;20022;-82
2021/07/28 05:18:19;;;;;;;19.05;4.60;;;17.10;99.90;;;;;;4973958;28;20457;-82
2021/07/28 05:20:45;;;;;;;17.90;4.72;;;17.10;99.90;;;;;;4974328;28;20039;-82
2021/07/28 05:23:10;;;;;;;19.33;4.07;;;17.10;99.90;;;;;;4974042;28;20034;-82
2021/07/28 05:25:36;;;;;;;22.40;5.00;;;17.10;99.90;;;;;;4974629;28;20522;-82
2021/07/28 05:28:02;;;;;;;31.73;5.68;;;17.20;99.90;;;;;;4973256;28;20483;-82
2021/07/28 05:30:28;;;;;;;25.40;5.35;;;17.20;99.90;;;;;;4975772;28;20030;-82
2021/07/28 05:32:54;;;;;;;22.45;5.57;;;17.30;99.90;;;;;;4991123;28;20482;-81
2021/07/28 05:35:20;;;;;;;21.77;4.22;;;17.30;99.90;;;;;;4991504;28;20077;-84
2021/07/28 05:37:46;;;;;;;24.00;5.13;;;17.40;99.90;;;;;;4993699;28;20034;-81
2021/07/28 05:40:12;;;;;;;10.32;3.60;;;17.60;99.90;;;;;;4993621;28;20030;-82
2021/07/28 05:42:38;;;;;;;26.30;4.70;;;17.80;99.90;;;;;;4993048;28;20486;-81
2021/07/28 05:45:04;;;;;;;26.33;4.55;;;18.00;99.90;;;;;;4984096;28;20112;-81
2021/07/28 05:47:30;;;;;;;24.52;3.58;;;18.20;99.90;;;;;;4992530;28;20038;-82
2021/07/28 05:49:58;;;;;;;10.57;3.08;;;18.20;99.90;;;;;;4991371;28;20029;-81
2021/07/28 05:52:24;;;;;;;16.67;3.75;;;18.20;99.90;;;;;;4992875;28;20093;-81
2021/07/28 05:54:49;;;;;;;18.73;4.18;;;18.20;99.90;;;;;;4993052;28;20458;-82
2021/07/28 05:57:15;;;;;;;17.02;3.67;;;18.30;99.90;;;;;;4991665;28;20117;-82
2021/07/28 05:59:41;;;;;;;15.77;3.70;;;18.30;99.90;;;;;;4992508;28;20022;-81
2021/07/28 06:02:06;;;;;;;16.67;3.75;;;18.20;99.90;;;;;;5002751;28;20456;-82
2021/07/28 06:04:32;;;;;;;16.33;4.47;;;18.30;99.90;;;;;;4989821;28;20034;-81
2021/07/28 06:06:58;;;;;;;20.40;4.18;;;18.20;99.90;;;;;;4991951;28;20089;-81
2021/07/28 06:09:23;;;;;;;14.85;3.45;;;18.20;99.90;;;;;;4991605;28;20030;-80
2021/07/28 06:11:49;;;;;;;15.45;3.15;;;18.20;99.90;;;;;;4988366;28;20054;-80
2021/07/28 06:14:14;;;;;;;13.70;3.20;;;18.10;99.90;;;;;;4989422;28;20023;-81
2021/07/28 06:16:40;;;;;;;8.25;2.97;;;18.10;99.90;;;;;;4991129;28;20026;-80
2021/07/28 06:19:06;;;;;;;15.57;3.75;;;18.10;99.90;;;;;;4990165;28;20488;-80
2021/07/28 06:21:31;;;;;;;12.65;3.05;;;18.20;99.90;;;;;;4986236;28;20035;-81
2021/07/28 06:23:59;;;;;;;10.70;3.20;;;18.30;99.90;;;;;;4987944;28;20038;-79
2021/07/28 06:26:26;;;;;;;10.52;2.88;;;18.40;99.90;;;;;;4986950;28;20026;-81
2021/07/28 06:28:51;;;;;;;8.45;2.70;;;18.50;99.90;;;;;;4987237;28;20501;-81
2021/07/28 06:31:17;;;;;;;13.48;3.20;;;18.60;99.90;;;;;;4987090;28;20038;-81
2021/07/28 06:33:42;;;;;;;6.32;2.50;;;18.70;99.90;;;;;;5002081;28;20050;-79
2021/07/28 06:36:08;;;;;;;11.55;3.33;;;18.80;99.90;;;;;;4987713;28;20034;-81
2021/07/28 06:38:34;;;;;;;14.82;2.70;;;18.90;99.90;;;;;;4990336;28;20037;-81
2021/07/28 06:41:00;;;;;;;12.65;2.63;;;18.80;99.90;;;;;;4990896;28;20042;-81
2021/07/28 06:43:25;;;;;;;7.70;2.63;;;18.70;99.90;;;;;;4988485;28;20046;-81
2021/07/28 06:46:00;;;;;;;14.30;2.55;;;18.50;99.90;;;;;;4981034;28;20042;-81
2021/07/28 06:48:26;;;;;;;13.32;3.08;;;18.50;99.90;;;;;;4990731;28;20034;-80
2021/07/28 06:50:52;;;;;;;7.30;2.20;;;18.50;99.90;;;;;;4988302;28;20117;-80
2021/07/28 06:53:18;;;;;;;10.57;2.50;;;18.50;99.90;;;;;;4990860;28;20050;-80
2021/07/28 06:55:44;;;;;;;8.27;2.45;;;18.70;99.90;;;;;;4990552;28;20493;-76
2021/07/28 06:58:09;;;;;;;9.88;2.05;;;18.70;99.90;;;;;;4976857;28;20034;-81
2021/07/28 07:00:35;;;;;;;9.35;2.83;;;18.80;99.90;;;;;;4986992;28;20084;-80
2021/07/28 07:03:01;;;;;;;7.18;2.50;;;18.90;99.90;;;;;;4990574;28;20033;-80
2021/07/28 07:05:27;;;;;;;9.93;2.88;;;19.00;99.90;;;;;;4986509;28;20034;-77
2021/07/28 07:07:53;;;;;;;12.40;2.40;;;19.10;99.90;;;;;;4989325;28;20084;-75
2021/07/28 07:10:19;;;;;;;5.97;2.20;;;19.30;99.90;;;;;;4987971;28;20097;-78
2021/07/28 07:12:46;;;;;;;8.95;2.35;;;19.40;99.90;;;;;;4991508;28;20089;-77
2021/07/28 07:15:11;;;;;;;9.05;2.65;;;19.80;99.90;;;;;;4994961;28;20037;-76
2021/07/28 07:17:37;;;;;;;5.35;2.42;;;20.10;99.90;;;;;;5010269;28;20030;-77
2021/07/28 07:20:04;;;;;;;9.70;2.35;;;20.10;99.90;;;;;;4987629;28;20042;-76
2021/07/28 07:22:29;;;;;;;11.85;2.20;;;20.30;99.90;;;;;;4976814;28;20110;-74
2021/07/28 07:24:55;;;;;;;7.32;2.40;;;20.10;99.90;;;;;;4976095;28;20121;-76
2021/07/28 07:27:21;;;;;;;9.25;2.35;;;20.00;99.90;;;;;;4971827;28;20023;-77
2021/07/28 07:29:48;;;;;;;8.13;2.05;;;19.90;99.90;;;;;;4989799;28;20026;-77
2021/07/28 07:32:19;;;;;;;9.40;2.17;;;19.90;99.90;;;;;;4986549;28;20033;-76
2021/07/28 07:34:45;;;;;;;11.43;3.22;;;19.80;99.90;;;;;;4986032;28;20034;-76
2021/07/28 07:37:10;;;;;;;11.20;2.60;;;19.50;99.90;;;;;;4984161;28;20041;-77
2021/07/28 07:39:36;;;;;;;4.55;2.10;;;19.30;99.90;;;;;;4987584;28;20074;-77
2021/07/28 07:42:02;;;;;;;9.80;2.50;;;19.30;99.90;;;;;;4986090;28;20041;-76
2021/07/28 07:44:27;;;;;;;8.10;2.95;;;19.30;99.90;;;;;;4988245;28;20049;-77
2021/07/28 07:46:53;;;;;;;12.73;2.35;;;19.60;99.90;;;;;;4989777;28;20030;-77
2021/07/28 07:49:19;;;;;;;7.80;2.42;;;20.20;99.90;;;;;;4986382;28;20069;-75
2021/07/28 07:51:44;;;;;;;6.60;2.10;;;21.90;99.90;;;;;;4989321;28;20030;-75
2021/07/28 07:54:10;;;;;;;6.72;2.22;;;24.20;97.40;;;;;;4984812;28;20765;-78
2021/07/28 07:56:35;;;;;;;8.35;2.53;;;25.20;95.50;;;;;;4969058;28;20049;-77
2021/07/28 07:59:01;;;;;;;7.78;2.38;;;26.50;93.10;;;;;;4970170;28;20101;-77
2021/07/28 08:01:27;;;;;;;5.38;1.63;;;26.20;92.60;;;;;;4983614;28;20501;-77
2021/07/28 08:03:52;;;;;;;4.93;1.70;;;23.80;92.90;;;;;;4989647;28;20052;-77
2021/07/28 08:06:18;;;;;;;4.82;1.92;;;22.40;96.00;;;;;;4978442;28;20034;-75
2021/07/28 08:08:44;;;;;;;5.75;2.00;;;24.00;94.30;;;;;;4989311;28;20030;-77
2021/07/28 08:11:11;;;;;;;24.90;3.30;;;26.20;92.40;;;;;;4987078;28;20018;-77
2021/07/28 08:13:37;;;;;;;6.05;2.25;;;27.20;90.70;;;;;;4988701;28;20504;-75
2021/07/28 08:16:11;;;;;;;6.15;2.53;;;27.30;89.20;;;;;;4988383;28;20105;-77
2021/07/28 08:18:36;;;;;;;17.05;2.78;;;28.00;89.00;;;;;;4990150;28;20033;-76
2021/07/28 08:21:04;;;;;;;7.05;2.13;;;27.20;89.00;;;;;;4988622;28;20030;-77
2021/07/28 08:23:30;;;;;;;8.15;2.40;;;28.30;88.60;;;;;;4988413;28;20112;-77
2021/07/28 08:25:55;;;;;;;4.35;2.10;;;28.30;88.30;;;;;;4989353;28;20121;-83
2021/07/28 08:28:21;;;;;;;6.30;2.30;;;27.10;88.60;;;;;;4986043;28;20066;-75
2021/07/28 08:30:46;;;;;;;5.28;2.35;;;26.40;91.10;;;;;;4988877;28;20026;-77
2021/07/28 08:33:12;;;;;;;12.93;2.63;;;26.70;90.90;;;;;;4990747;28;20030;-77
2021/07/28 08:35:38;;;;;;;10.80;2.88;;;27.10;89.50;;;;;;4993520;28;20026;-76
2021/07/28 08:38:07;;;;;;;6.57;2.20;;;27.60;89.80;;;;;;4977055;28;20703;-77
2021/07/28 08:40:34;;;;;;;5.53;2.20;;;27.30;89.70;;;;;;4986320;28;20045;-77
2021/07/28 08:43:01;;;;;;;6.57;2.00;;;27.50;87.20;;;;;;4976198;28;20022;-77
2021/07/28 08:45:26;;;;;;;2.63;1.80;;;27.00;87.90;;;;;;4993664;28;20080;-77
2021/07/28 08:47:53;;;;;;;7.90;2.20;;;26.70;87.70;;;;;;4992682;28;20050;-82
2021/07/28 08:50:19;;;;;;;4.72;2.10;;;26.50;90.00;;;;;;4992430;28;20022;-84
2021/07/28 08:52:45;;;;;;;5.28;2.15;;;26.60;89.10;;;;;;4990521;28;20037;-78
2021/07/28 08:55:11;;;;;;;7.47;2.53;;;27.80;87.70;;;;;;4990322;28;20030;-78
2021/07/28 08:57:37;;;;;;;5.68;2.40;;;27.70;85.80;;;;;;4979628;28;20030;-79
2021/07/28 09:00:05;;;;;;;5.00;2.10;;;27.80;83.40;;;;;;4972491;28;20061;-78
2021/07/28 09:02:31;;;;;;;5.70;1.85;;;28.00;84.80;;;;;;4982763;28;20034;-78
2021/07/28 09:04:56;;;;;;;8.73;2.40;;;27.40;85.10;;;;;;4990845;28;20025;-78
2021/07/28 09:07:23;;;;;;;3.28;2.00;;;27.30;85.90;;;;;;4989873;28;20104;-77
2021/07/28 09:09:53;;;;;;;12.90;2.10;;;27.70;80.10;;;;;;4992707;28;20029;-79
2021/07/28 09:12:20;;;;;;;8.23;2.00;;;27.40;82.40;;;;;;4990521;28;20022;-78
2021/07/28 09:14:55;;;;;;;2.95;1.90;;;27.10;83.60;;;;;;4996132;28;20029;-78
2021/07/28 09:17:27;;;;;;;6.85;2.13;;;27.60;84.50;;;;;;5005922;28;20031;-78
2021/07/28 09:19:54;;;;;;;6.25;2.30;;;27.70;85.20;;;;;;4988614;28;20654;-78
2021/07/28 09:22:20;;;;;;;11.50;2.50;;;28.60;84.00;;;;;;4986226;28;20030;-79
2021/07/28 09:25:33;;;;;;;4.53;2.28;;;29.40;81.80;;;;;;4975393;28;20505;-78
2021/07/28 09:27:57;;;;;;;5.10;1.88;;;29.00;81.50;;;;;;4973964;28;20121;-78
2021/07/28 09:30:23;;;;;;;5.13;2.20;;;27.10;83.00;;;;;;4992108;28;20058;-78
2021/07/28 09:33:00;;;;;;;6.07;2.15;;;26.40;86.30;;;;;;4989735;28;20027;-77
2021/07/28 09:35:54;;;;;;;10.70;2.47;;;26.70;85.80;;;;;;4990101;28;20026;-78
2021/07/28 09:38:42;;;;;;;6.80;2.25;;;27.50;84.40;;;;;;4990675;28;20034;-78
2021/07/28 09:41:18;;;;;;;3.38;2.30;;;27.60;84.40;;;;;;4994926;28;20052;-78
2021/07/28 09:43:58;;;;;;;5.72;2.30;;;27.90;84.90;;;;;;4986928;28;20042;-78
2021/07/28 09:46:24;;;;;;;4.63;2.10;;;28.30;83.20;;;;;;4972486;28;20441;-78
2021/07/28 09:48:49;;;;;;;3.75;1.98;;;28.60;82.70;;;;;;4972592;28;20038;-78
2021/07/28 09:51:22;;;;;;;7.13;2.10;;;27.80;83.10;;;;;;4972993;28;20031;-79
2021/07/28 09:53:56;;;;;;;6.97;2.38;;;27.50;83.20;;;;;;4991736;28;20054;-77
2021/07/28 09:56:34;;;;;;;4.07;2.33;;;27.10;85.90;;;;;;4990715;28;20065;-77
2021/07/28 09:59:00;;;;;;;7.05;2.53;;;27.40;85.30;;;;;;4990052;28;20478;-77
2021/07/28 10:01:28;;;;;;;12.18;2.90;;;25.60;89.80;;;;;;4989558;28;20018;-78
2021/07/28 10:03:54;;;;;;;6.38;3.15;;;26.30;91.10;;;;;;4992028;28;20022;-79
2021/07/28 10:06:23;;;;;;;8.73;2.20;;;26.90;88.70;;;;;;4984706;28;20022;-78
2021/07/28 10:08:52;;;;;;;10.13;1.88;;;25.80;90.00;;;;;;4988521;28;20031;-81
2021/07/28 10:11:22;;;;;;;3.42;2.10;;;25.00;90.70;;;;;;4987498;28;20511;-78
2021/07/28 10:13:49;;;;;;;5.35;1.85;;;25.50;91.00;;;;;;4991407;28;20443;-77
2021/07/28 10:16:17;;;;;;;4.85;1.90;;;25.00;88.70;;;;;;4988716;28;20057;-78
2021/07/28 10:18:45;;;;;;;11.70;2.05;;;23.90;91.50;;;;;;4982670;28;20460;-77
2021/07/28 10:21:11;;;;;;;4.72;1.90;;;23.70;92.30;;;;;;4997157;28;20497;-78
2021/07/28 10:23:37;;;;;;;8.35;2.35;;;23.00;93.80;;;;;;4998446;28;20029;-77
2021/07/28 10:26:05;;;;;;;4.43;1.90;;;23.10;93.90;;;;;;4988299;28;20038;-77
2021/07/28 10:28:31;;;;;;;4.65;1.95;;;23.10;94.30;;;;;;4987356;28;20081;-77
2021/07/28 10:31:16;;;;;;;8.88;3.10;;;22.70;94.30;;;;;;4987360;28;20018;-77
2021/07/28 10:33:46;;;;;;;8.23;3.25;;;22.80;95.30;;;;;;4988513;28;20041;-77
2021/07/28 10:36:12;;;;;;;10.57;2.60;;;23.40;94.90;;;;;;5001881;28;20509;-78
2021/07/28 10:38:56;;;;;;;3.58;2.10;;;23.10;95.60;;;;;;4985219;28;20038;-77
2021/07/28 10:41:41;;;;;;;5.85;2.25;;;23.00;95.10;;;;;;4988524;28;20046;-78
2021/07/28 10:44:12;;;;;;;4.28;1.75;;;23.60;94.30;;;;;;4987228;28;20034;-77
2021/07/28 10:46:53;;;;;;;9.73;4.03;;;23.70;94.50;;;;;;4985684;28;20038;-80
2021/07/28 10:49:37;;;;;;;3.05;1.48;;;24.10;93.70;;;;;;4986454;28;20031;-77
2021/07/28 10:52:13;;;;;;;5.78;1.60;;;23.60;94.30;;;;;;4984153;28;20034;-77
2021/07/28 10:57:32;;;;;;;7.00;1.85;;;23.20;93.50;;;;;;4983659;28;20521;-78
2021/07/28 10:59:58;;;;;;;2.95;1.88;;;23.30;93.80;;;;;;4986451;28;20073;-78
2021/07/28 11:02:24;;;;;;;6.45;2.22;;;23.40;93.80;;;;;;4985128;28;20066;-78
2021/07/28 11:05:21;;;;;;;5.88;1.95;;;23.10;94.00;;;;;;4986683;28;20128;-78
2021/07/28 11:08:05;;;;;;;39.15;4.05;;;23.30;94.50;;;;;;4977383;28;20556;-78
2021/07/28 11:10:57;;;;;;;16.00;3.00;;;22.60;97.60;;;;;;4985029;28;20085;-77
2021/07/28 11:13:31;;;;;;;17.05;3.47;;;22.60;97.70;;;;;;4985959;28;20105;-77
2021/07/28 11:15:58;;;;;;;5.03;2.35;;;22.50;98.30;;;;;;4984238;28;20038;-82
2021/07/28 11:18:35;;;;;;;5.97;2.28;;;22.10;98.70;;;;;;4987235;28;20038;-80
2021/07/28 11:21:14;;;;;;;8.57;2.53;;;21.50;99.00;;;;;;4985476;28;20045;-77
2021/07/28 11:23:45;;;;;;;7.13;2.75;;;21.20;99.90;;;;;;4987036;28;20089;-77
2021/07/28 11:26:20;;;;;;;6.20;2.33;;;21.50;99.90;;;;;;4987895;28;20121;-78
2021/07/28 11:28:47;;;;;;;5.32;2.47;;;21.30;99.90;;;;;;4988131;28;20548;-77
2021/07/28 11:31:13;;;;;;;9.27;2.97;;;21.10;99.90;;;;;;4989240;28;20512;-77
2021/07/28 11:33:39;;;;;;;8.43;2.83;;;21.00;99.90;;;;;;4988537;28;20046;-78
2021/07/28 11:36:06;;;;;;;4.30;2.40;;;20.90;99.90;;;;;;4988475;28;20478;-78
2021/07/28 11:38:34;;;;;;;4.65;2.10;;;20.80;99.90;;;;;;4989664;28;20027;-80
2021/07/28 11:41:01;;;;;;;4.43;2.35;;;20.90;99.90;;;;;;4978527;28;20049;-77
2021/07/28 11:43:26;;;;;;;6.45;2.08;;;20.80;99.40;;;;;;4982313;28;20042;-78
2021/07/28 11:45:57;;;;;;;4.30;2.22;;;21.10;98.50;;;;;;4977598;28;20031;-78
2021/07/28 11:48:41;;;;;;;4.65;2.70;;;21.20;97.20;;;;;;4968672;28;20131;-77
2021/07/28 11:51:27;;;;;;;3.85;2.20;;;21.20;96.90;;;;;;4980551;28;20075;-78
2021/07/28 11:54:05;;;;;;;5.07;2.10;;;21.20;97.60;;;;;;4989222;28;20044;-77
2021/07/28 11:56:31;;;;;;;5.82;2.42;;;21.30;96.90;;;;;;4990298;28;20030;-79
2021/07/28 11:58:57;;;;;;;3.88;2.20;;;21.60;96.60;;;;;;4988404;28;20522;-78
2021/07/28 12:01:28;;;;;;;10.05;2.38;;;21.80;95.00;;;;;;4984957;28;20125;-78
2021/07/28 12:03:58;;;;;;;2.70;2.13;;;22.00;95.00;;;;;;4987989;28;20209;-78
2021/07/28 12:06:37;;;;;;;3.75;2.00;;;22.00;94.40;;;;;;4981354;28;20113;-78
2021/07/28 12:09:09;;;;;;;4.93;2.00;;;22.00;94.20;;;;;;4993843;28;20037;-77
2021/07/28 12:11:54;;;;;;;3.65;1.85;;;22.20;94.20;;;;;;4989947;28;20033;-78
2021/07/28 12:14:28;;;;;;;1.70;1.60;;;22.60;93.60;;;;;;5002207;28;20037;-78
2021/07/28 12:16:55;;;;;;;5.68;1.95;;;22.50;93.50;;;;;;4991304;28;20027;-77
2021/07/28 12:19:23;;;;;;;6.00;1.95;;;22.60;93.80;;;;;;4992179;28;20433;-77
2021/07/28 12:21:57;;;;;;;2.97;1.77;;;22.20;94.00;;;;;;4975776;28;20493;-78
2021/07/28 12:24:30;;;;;;;3.90;1.60;;;23.70;92.90;;;;;;4990154;28;20026;-78
2021/07/28 12:27:25;;;;;;;4.55;1.73;;;24.20;91.70;;;;;;4987205;28;20049;-78
2021/07/28 12:30:07;;;;;;;5.05;1.83;;;24.00;92.00;;;;;;4980463;28;20030;-78
2021/07/28 12:33:00;;;;;;;3.47;1.63;;;23.50;93.00;;;;;;4988980;28;20033;-79
2021/07/28 12:35:33;;;;;;;2.60;1.65;;;23.10;93.60;;;;;;4981622;28;20133;-79
2021/07/28 12:38:13;;;;;;;2.00;1.70;;;23.10;93.40;;;;;;4990788;28;20034;-81
2021/07/28 12:40:41;;;;;;;4.25;1.92;;;22.90;93.90;;;;;;5002889;28;20039;-78
2021/07/28 12:43:07;;;;;;;5.07;1.88;;;23.10;94.20;;;;;;4990403;28;20501;-78
2021/07/28 12:45:34;;;;;;;3.58;1.70;;;23.60;93.80;;;;;;4991813;28;20030;-78
2021/07/28 12:48:00;;;;;;;5.85;2.03;;;23.50;93.10;;;;;;4991068;28;20438;-79
2021/07/28 12:50:26;;;;;;;7.15;2.13;;;23.40;93.50;;;;;;4991032;28;20109;-79
2021/07/28 12:52:51;;;;;;;3.05;2.00;;;23.80;93.90;;;;;;4991637;28;20097;-85